This is the latest recevied weather packets stored in our database for station/object SP5MRF. If no packets are shown the sender has not sent any weather packets the latest 1 day(s).
| Time | Temp. | Humidity | Pressure | Rain* | Wind** | Luminosity | Snow |
|---|---|---|---|---|---|---|---|
| 1778076355 | 25° C | 42% | 1000.9 hPa | 0 mm | - | - | - |
| 1778073955 | 25.56° C | 41% | 1000.7 hPa | 0 mm | - | - | - |
| 1778066277 | 25.56° C | 41% | 1000.4 hPa | 0 mm | - | - | - |
| 1778061477 | 25° C | 41% | 1000.7 hPa | 0 mm | - | - | - |
| 1778059076 | 23.89° C | 42% | 1000.6 hPa | 0 mm | - | - | - |
| 1778057635 | 23.33° C | 41% | 1000.7 hPa | 0 mm | - | - | - |
| 1778056677 | 23.89° C | 42% | 1000.4 hPa | 0 mm | - | - | - |
| 1778055236 | 23.33° C | 43% | 1000.5 hPa | 0 mm | - | - | - |
| 1778054275 | 22.78° C | 46% | 1000.6 hPa | 0 mm | - | - | - |
| 1778052839 | 21.11° C | 50% | 1000.7 hPa | 0 mm | - | - | - |
| 1778050436 | 18.89° C | 57% | 1001 hPa | 0 mm | - | - | - |
| 1778048036 | 16.11° C | 66% | 1001.3 hPa | 0 mm | - | - | - |
| 1778046597 | 14.44° C | 72% | 1001.6 hPa | 0 mm | - | - | - |
| 1778046116 | 14.44° C | 74% | 1001.4 hPa | 0 mm | - | - | - |
| 1778045637 | 13.89° C | 76% | 1001.4 hPa | 0 mm | - | - | - |
| 1778044196 | 13.33° C | 80% | 1001.5 hPa | 0 mm | - | - | - |
| 1778043716 | 12.78° C | 81% | 1001.7 hPa | 0 mm | - | - | - |
| 1778043236 | 12.78° C | 82% | 1001.6 hPa | 0 mm | - | - | - |
| 1778042756 | 12.78° C | 83% | 1001.5 hPa | 0 mm | - | - | - |
| 1778042276 | 12.22° C | 83% | 1001.1 hPa | 0 mm | - | - | - |
| 1778041796 | 12.22° C | 82% | 1001.3 hPa | 0 mm | - | - | - |
| 1778041316 | 12.22° C | 82% | 1001.5 hPa | 0 mm | - | - | - |
| 1778040356 | 11.67° C | 82% | 1001.5 hPa | 0 mm | - | - | - |
| 1778039876 | 11.67° C | 81% | 1001.5 hPa | 0 mm | - | - | - |
| 1778039396 | 11.67° C | 80% | 1001.6 hPa | 0 mm | - | - | - |
* Rain latest hour (hover to see other rain measurements)
** Current wind speed in m/s (hover to see current wind gust speed)